Time;durP1;ratioP1;P1;durP2;ratioP2;P2;SDS_P1;SDS_P2;PMS_P1;PMS_P2;Temp;Humidity;BMP_temperature;BMP_pressure;BME280_temperature;BME280_humidity;BME280_pressure;Samples;Min_cycle;Max_cycle;Signal;HPM_P1;HPM_P2
2022/10/05 00:01:55;;;;;;;2.75;2.55;;;17.90;58.00;;;;;;5000885;28;20204;-79
2022/10/05 00:04:27;;;;;;;2.95;2.75;;;17.90;57.80;;;;;;5000013;28;20285;-79
2022/10/05 00:06:57;;;;;;;2.83;2.63;;;17.80;57.80;;;;;;5017714;28;20247;-79
2022/10/05 00:09:24;;;;;;;3.03;2.70;;;17.90;58.00;;;;;;4999106;28;20211;-79
2022/10/05 00:11:51;;;;;;;2.95;2.70;;;17.80;57.90;;;;;;4998993;28;20197;-79
2022/10/05 00:14:19;;;;;;;2.92;2.65;;;17.80;58.00;;;;;;4998741;28;20247;-79
2022/10/05 00:16:46;;;;;;;2.90;2.70;;;17.80;57.90;;;;;;4998375;28;20248;-79
2022/10/05 00:19:20;;;;;;;2.90;2.70;;;17.80;57.90;;;;;;4998623;28;20202;-79
2022/10/05 00:21:48;;;;;;;2.90;2.70;;;17.80;57.90;;;;;;4999448;28;20287;-79
2022/10/05 00:24:18;;;;;;;2.97;2.67;;;17.80;58.00;;;;;;5000635;28;20201;-79
2022/10/05 00:26:45;;;;;;;2.70;2.50;;;17.80;58.00;;;;;;4999456;28;20657;-79
2022/10/05 00:29:17;;;;;;;3.10;2.88;;;17.80;58.00;;;;;;4998792;28;20200;-79
2022/10/05 00:31:44;;;;;;;2.63;2.42;;;17.80;57.90;;;;;;4998498;28;20365;-79
2022/10/05 00:34:11;;;;;;;3.47;2.45;;;17.70;57.90;;;;;;5008181;28;20197;-79
2022/10/05 00:36:38;;;;;;;2.65;2.45;;;17.70;57.90;;;;;;5000487;28;20243;-79
2022/10/05 00:39:07;;;;;;;2.85;2.42;;;17.70;58.20;;;;;;5000585;28;20200;-79
2022/10/05 00:41:41;;;;;;;2.90;2.70;;;17.70;57.90;;;;;;5000188;28;20196;-79
2022/10/05 00:44:32;;;;;;;2.83;2.63;;;17.70;57.90;;;;;;5017604;28;20637;-79
2022/10/05 00:47:06;;;;;;;2.63;2.42;;;17.70;58.10;;;;;;4999691;28;20178;-79
2022/10/05 00:49:46;;;;;;;3.05;2.85;;;17.70;57.90;;;;;;5000359;28;20208;-79
2022/10/05 00:52:19;;;;;;;2.78;2.58;;;17.70;57.80;;;;;;4999358;28;20386;-79
2022/10/05 00:54:49;;;;;;;2.63;2.42;;;17.70;57.80;;;;;;5017048;28;20209;-79
2022/10/05 00:57:25;;;;;;;2.65;2.45;;;17.70;58.50;;;;;;4998760;28;20216;-79
2022/10/05 00:59:57;;;;;;;2.45;2.25;;;17.70;57.90;;;;;;4998963;28;20199;-79
2022/10/05 01:02:27;;;;;;;2.67;2.47;;;17.70;58.00;;;;;;4998586;28;20220;-79
2022/10/05 01:04:56;;;;;;;3.00;2.70;;;17.70;58.00;;;;;;4997851;28;20576;-79
2022/10/05 01:07:28;;;;;;;2.70;2.50;;;17.60;58.00;;;;;;4998054;28;20201;-79
2022/10/05 01:09:58;;;;;;;2.70;2.50;;;17.70;58.10;;;;;;4997713;28;20193;-79
2022/10/05 01:12:28;;;;;;;3.95;3.20;;;17.60;58.00;;;;;;4998432;28;20224;-79
2022/10/05 01:14:58;;;;;;;3.03;2.83;;;17.60;58.20;;;;;;4997498;28;20224;-80
2022/10/05 01:17:28;;;;;;;3.03;2.75;;;17.60;58.30;;;;;;4998518;28;20264;-79
2022/10/05 01:20:10;;;;;;;2.97;2.78;;;17.60;58.10;;;;;;4998528;28;20218;-79
2022/10/05 01:22:46;;;;;;;2.63;2.42;;;17.60;58.10;;;;;;4997832;28;20708;-80
2022/10/05 01:25:21;;;;;;;2.83;2.63;;;17.60;58.10;;;;;;4999006;28;20208;-79
2022/10/05 01:27:54;;;;;;;3.65;2.58;;;17.60;57.90;;;;;;4997827;28;20223;-80
2022/10/05 01:30:21;;;;;;;2.78;2.58;;;17.60;58.40;;;;;;4999161;28;20287;-79
2022/10/05 01:32:50;;;;;;;2.70;2.47;;;17.60;58.40;;;;;;4998913;28;20696;-80
2022/10/05 01:35:24;;;;;;;2.60;2.40;;;17.60;58.00;;;;;;4998305;28;20207;-80
2022/10/05 01:37:58;;;;;;;3.58;2.75;;;17.50;58.00;;;;;;4998778;28;20209;-80
2022/10/05 01:40:30;;;;;;;2.60;2.40;;;17.50;58.00;;;;;;4998690;28;20184;-79
2022/10/05 01:43:03;;;;;;;3.28;2.80;;;17.50;57.90;;;;;;4998324;28;20259;-79
2022/10/05 01:45:33;;;;;;;3.80;2.40;;;17.50;57.90;;;;;;4998692;28;20251;-80
2022/10/05 01:48:04;;;;;;;2.85;2.40;;;17.50;57.80;;;;;;4998782;28;20247;-80
2022/10/05 01:50:35;;;;;;;2.78;2.58;;;17.50;57.80;;;;;;5000032;28;20284;-79
2022/10/05 01:53:05;;;;;;;2.55;2.35;;;17.50;57.80;;;;;;5000127;28;20227;-79
2022/10/05 01:55:36;;;;;;;3.17;2.65;;;17.50;57.90;;;;;;4999386;28;20193;-79
2022/10/05 01:58:09;;;;;;;3.08;2.60;;;17.50;57.80;;;;;;4998851;28;20236;-79
2022/10/05 02:00:39;;;;;;;2.80;2.60;;;17.50;58.00;;;;;;4997423;28;20264;-79
2022/10/05 02:03:10;;;;;;;3.20;2.60;;;17.50;57.80;;;;;;4998287;28;20279;-79
2022/10/05 02:05:39;;;;;;;2.67;2.47;;;17.50;57.70;;;;;;4997187;28;20562;-79
2022/10/05 02:08:07;;;;;;;3.05;2.60;;;17.50;57.70;;;;;;4998271;28;20199;-79
2022/10/05 02:10:36;;;;;;;2.53;2.33;;;17.50;57.90;;;;;;4997021;28;20203;-79
2022/10/05 02:13:06;;;;;;;4.43;2.65;;;17.50;57.70;;;;;;4998480;28;20770;-79
2022/10/05 02:15:38;;;;;;;2.45;2.25;;;17.40;57.60;;;;;;4998067;28;20196;-79
2022/10/05 02:18:09;;;;;;;2.55;2.35;;;17.40;57.50;;;;;;4998102;28;20213;-79
2022/10/05 02:20:36;;;;;;;3.10;2.40;;;17.40;57.60;;;;;;4997151;28;20200;-79
2022/10/05 02:23:05;;;;;;;2.55;2.38;;;17.40;57.80;;;;;;4996659;28;20800;-79
2022/10/05 02:25:36;;;;;;;2.80;2.60;;;17.40;57.70;;;;;;4997020;28;20196;-79
2022/10/05 02:28:06;;;;;;;2.60;2.40;;;17.40;58.30;;;;;;5000148;28;20201;-79
2022/10/05 02:30:35;;;;;;;2.60;2.08;;;17.40;57.60;;;;;;5001382;28;20682;-79
2022/10/05 02:33:06;;;;;;;3.03;2.42;;;17.40;57.60;;;;;;4999800;28;20224;-79
2022/10/05 02:35:33;;;;;;;3.25;2.38;;;17.40;57.60;;;;;;5000320;28;20353;-79
2022/10/05 02:38:05;;;;;;;2.60;2.40;;;17.40;57.50;;;;;;5000823;28;20216;-79
2022/10/05 02:40:38;;;;;;;2.60;2.40;;;17.40;57.50;;;;;;5000490;28;20207;-79
2022/10/05 02:43:11;;;;;;;2.65;2.45;;;17.40;57.50;;;;;;4999082;28;20224;-79
2022/10/05 02:45:41;;;;;;;2.95;2.40;;;17.40;57.60;;;;;;4997619;28;20193;-79
2022/10/05 02:48:12;;;;;;;4.18;2.30;;;17.30;57.50;;;;;;4990247;28;20256;-79
2022/10/05 02:50:45;;;;;;;2.75;2.55;;;17.40;57.60;;;;;;4997947;28;20236;-79
2022/10/05 02:53:17;;;;;;;2.95;2.40;;;17.30;57.50;;;;;;4997873;28;20275;-79
2022/10/05 02:55:47;;;;;;;2.97;2.17;;;17.30;57.50;;;;;;4997519;28;20196;-79
2022/10/05 02:58:18;;;;;;;2.70;2.50;;;17.30;57.50;;;;;;4997091;28;20636;-79
2022/10/05 03:00:47;;;;;;;2.92;2.63;;;17.30;57.50;;;;;;4995970;28;20193;-77
2022/10/05 03:03:18;;;;;;;3.35;2.40;;;17.30;57.50;;;;;;4996399;28;20225;-77
2022/10/05 03:05:48;;;;;;;2.50;2.30;;;17.30;57.50;;;;;;4996340;28;20189;-77
2022/10/05 03:08:18;;;;;;;2.72;2.53;;;17.30;57.30;;;;;;4997311;28;20215;-77
2022/10/05 03:10:47;;;;;;;2.72;2.40;;;17.30;57.10;;;;;;4997655;28;20685;-77
2022/10/05 03:13:23;;;;;;;2.70;2.50;;;17.30;57.30;;;;;;4999480;28;20223;-77
2022/10/05 03:15:56;;;;;;;2.78;2.53;;;17.30;57.10;;;;;;4999803;28;20664;-77
2022/10/05 03:18:31;;;;;;;2.60;2.40;;;17.30;57.20;;;;;;4999490;28;20213;-77
2022/10/05 03:21:06;;;;;;;2.40;2.20;;;17.30;57.30;;;;;;5000192;28;20192;-77
2022/10/05 03:23:36;;;;;;;2.47;2.28;;;17.30;57.30;;;;;;5000065;28;20240;-77
2022/10/05 03:26:11;;;;;;;2.38;2.22;;;17.30;57.30;;;;;;4999646;28;20284;-77
2022/10/05 03:28:43;;;;;;;2.72;2.40;;;17.30;57.20;;;;;;4999577;28;20188;-77
2022/10/05 03:31:14;;;;;;;2.58;2.20;;;17.30;57.10;;;;;;5000291;28;20189;-76
2022/10/05 03:33:44;;;;;;;3.05;2.47;;;17.30;57.10;;;;;;4999437;28;20307;-77
2022/10/05 03:36:16;;;;;;;2.72;2.50;;;17.30;57.10;;;;;;5000556;28;20196;-76
2022/10/05 03:38:47;;;;;;;2.50;2.30;;;17.30;57.30;;;;;;5000339;28;20213;-77
2022/10/05 03:41:17;;;;;;;2.50;2.30;;;17.30;57.10;;;;;;4999510;28;20181;-77
2022/10/05 03:44:20;;;;;;;2.67;2.40;;;17.30;57.10;;;;;;4999248;28;20308;-76
2022/10/05 03:47:05;;;;;;;2.65;2.45;;;17.40;57.30;;;;;;4995655;28;20197;-77
2022/10/05 03:49:38;;;;;;;2.88;2.42;;;17.40;57.10;;;;;;5000576;28;20223;-77
2022/10/05 03:52:13;;;;;;;2.40;2.22;;;17.40;57.10;;;;;;5016872;28;20292;-77
2022/10/05 03:54:42;;;;;;;2.72;2.50;;;17.30;57.10;;;;;;4999072;28;20208;-77
2022/10/05 03:57:10;;;;;;;2.58;2.38;;;17.40;57.10;;;;;;4998571;28;20217;-77
2022/10/05 03:59:39;;;;;;;2.65;2.45;;;17.30;56.80;;;;;;4998845;28;20238;-76
2022/10/05 04:02:11;;;;;;;3.10;2.60;;;17.40;56.90;;;;;;4999114;28;20217;-77
2022/10/05 04:04:41;;;;;;;2.50;2.30;;;17.40;56.90;;;;;;5002346;28;20189;-79
2022/10/05 04:07:11;;;;;;;3.38;2.47;;;17.40;56.80;;;;;;5004525;28;20748;-79
2022/10/05 04:09:40;;;;;;;2.53;2.40;;;17.40;56.80;;;;;;5004266;28;20197;-79
2022/10/05 04:12:11;;;;;;;2.47;2.30;;;17.40;56.80;;;;;;5003524;28;20217;-79
2022/10/05 04:14:40;;;;;;;2.70;2.50;;;17.40;56.80;;;;;;5003734;28;20276;-79
2022/10/05 04:17:11;;;;;;;3.60;2.65;;;17.40;56.80;;;;;;5001147;28;20219;-79
2022/10/05 04:19:40;;;;;;;2.85;2.63;;;17.40;56.70;;;;;;5000130;28;20712;-79
2022/10/05 04:22:09;;;;;;;2.50;2.30;;;17.40;56.70;;;;;;5000311;28;20227;-79
2022/10/05 04:24:37;;;;;;;2.72;2.53;;;17.40;56.90;;;;;;5001736;28;20258;-79
2022/10/05 04:27:07;;;;;;;2.38;2.28;;;17.40;56.90;;;;;;5001636;28;20225;-79
2022/10/05 04:29:38;;;;;;;2.75;2.55;;;17.40;57.10;;;;;;5001331;28;20605;-79
2022/10/05 04:32:17;;;;;;;2.70;2.50;;;17.30;57.10;;;;;;5000174;28;20220;-79
2022/10/05 04:34:53;;;;;;;2.70;2.50;;;17.30;57.10;;;;;;4999756;28;20712;-79
2022/10/05 04:37:24;;;;;;;3.03;2.80;;;17.30;57.20;;;;;;4998957;28;20240;-80
2022/10/05 04:39:57;;;;;;;2.55;2.35;;;17.30;57.10;;;;;;5000125;28;20554;-79
2022/10/05 04:42:28;;;;;;;3.00;2.58;;;17.30;57.20;;;;;;4998721;28;20303;-79
2022/10/05 04:45:08;;;;;;;2.35;2.20;;;17.20;57.00;;;;;;5000665;28;20188;-79
2022/10/05 04:47:51;;;;;;;2.65;2.45;;;17.20;57.00;;;;;;5002710;28;20651;-79
2022/10/05 04:50:23;;;;;;;2.30;2.20;;;17.20;57.00;;;;;;5001983;28;20204;-79
2022/10/05 04:53:13;;;;;;;3.58;2.60;;;17.20;57.10;;;;;;5002748;28;20248;-79
2022/10/05 04:55:45;;;;;;;3.50;2.40;;;17.20;57.30;;;;;;5001272;28;20537;-79
2022/10/05 04:58:22;;;;;;;2.88;2.35;;;17.20;57.20;;;;;;5000691;28;20220;-79
2022/10/05 05:00:54;;;;;;;3.13;2.72;;;17.20;57.30;;;;;;5000921;28;20227;-80
2022/10/05 05:03:51;;;;;;;2.50;2.30;;;17.20;57.40;;;;;;5000421;28;20284;-79
2022/10/05 05:06:24;;;;;;;3.65;2.50;;;17.20;57.30;;;;;;4994400;28;20204;-79
2022/10/05 05:09:25;;;;;;;2.53;2.33;;;17.20;57.20;;;;;;4999718;28;20184;-79
2022/10/05 05:12:01;;;;;;;3.13;2.90;;;17.20;57.50;;;;;;4951214;28;20625;-79
2022/10/05 05:14:46;;;;;;;2.63;2.42;;;17.20;56.70;;;;;;4999058;28;20188;-78
2022/10/05 05:17:20;;;;;;;2.55;2.35;;;17.20;57.20;;;;;;4991602;28;20618;-79
2022/10/05 05:19:55;;;;;;;4.32;3.05;;;17.20;57.40;;;;;;5002226;28;20568;-79
2022/10/05 05:22:26;;;;;;;3.63;2.67;;;17.20;57.60;;;;;;4999117;28;20266;-79
2022/10/05 05:25:03;;;;;;;3.05;2.65;;;17.20;58.00;;;;;;4997727;28;20287;-79
2022/10/05 05:27:40;;;;;;;2.88;2.67;;;17.20;57.60;;;;;;4999317;28;20196;-78
2022/10/05 05:30:16;;;;;;;2.97;2.70;;;17.20;57.80;;;;;;4999419;28;20196;-78
2022/10/05 05:32:46;;;;;;;2.70;2.50;;;17.20;57.80;;;;;;4998813;28;20277;-79
2022/10/05 05:35:34;;;;;;;2.53;2.33;;;17.20;57.80;;;;;;4998434;28;20288;-78
2022/10/05 05:38:06;;;;;;;3.03;2.30;;;17.20;57.60;;;;;;4998061;28;20213;-78
2022/10/05 05:40:34;;;;;;;2.67;2.47;;;17.20;57.70;;;;;;4998541;28;20189;-79
2022/10/05 05:43:03;;;;;;;3.05;2.75;;;17.20;58.00;;;;;;5001635;28;20755;-78
2022/10/05 05:45:40;;;;;;;3.00;2.60;;;17.20;58.00;;;;;;4999179;28;20203;-79
2022/10/05 05:48:15;;;;;;;2.83;2.53;;;17.20;58.10;;;;;;4998047;28;20285;-79
2022/10/05 05:50:48;;;;;;;4.60;2.53;;;17.20;57.70;;;;;;4997575;28;20219;-79
2022/10/05 05:53:17;;;;;;;3.20;2.90;;;17.20;57.70;;;;;;4997243;28;20220;-79
2022/10/05 05:55:45;;;;;;;3.15;2.88;;;17.20;57.40;;;;;;4997932;28;20770;-79
2022/10/05 05:58:18;;;;;;;5.45;2.70;;;17.20;57.30;;;;;;4997009;28;20244;-79
2022/10/05 06:00:48;;;;;;;6.22;2.63;;;17.20;57.20;;;;;;4999590;28;20711;-79
2022/10/05 06:03:18;;;;;;;2.75;2.55;;;17.20;57.20;;;;;;4998682;28;20229;-79
2022/10/05 06:05:49;;;;;;;2.58;2.38;;;17.20;57.00;;;;;;4998247;28;20288;-79
2022/10/05 06:08:20;;;;;;;2.95;2.53;;;17.20;57.00;;;;;;4998010;28;20196;-79
2022/10/05 06:10:52;;;;;;;2.90;2.70;;;17.20;57.30;;;;;;4997844;28;20220;-79
2022/10/05 06:13:23;;;;;;;3.38;3.08;;;17.30;57.20;;;;;;4997038;28;20240;-79
2022/10/05 06:15:52;;;;;;;3.35;3.15;;;17.20;57.10;;;;;;4998669;28;20254;-79
2022/10/05 06:18:21;;;;;;;2.78;2.58;;;17.20;56.80;;;;;;4999821;28;20693;-79
2022/10/05 06:20:53;;;;;;;2.97;2.50;;;17.30;56.90;;;;;;4999392;28;20216;-79
2022/10/05 06:23:22;;;;;;;2.67;2.47;;;17.30;57.30;;;;;;5000105;28;20216;-79
2022/10/05 06:26:07;;;;;;;3.70;2.72;;;17.30;56.60;;;;;;5000518;28;20189;-79
2022/10/05 06:28:34;;;;;;;2.78;2.58;;;17.30;56.50;;;;;;4999215;28;20215;-80
2022/10/05 06:31:03;;;;;;;4.82;3.00;;;17.30;56.50;;;;;;4999495;28;20200;-79
2022/10/05 06:33:43;;;;;;;3.20;2.70;;;17.30;56.40;;;;;;4999701;28;20279;-80
2022/10/05 06:36:19;;;;;;;2.90;2.70;;;17.30;56.30;;;;;;5000245;28;20196;-80
2022/10/05 06:39:13;;;;;;;2.65;2.40;;;17.30;56.30;;;;;;4999982;28;20240;-79
2022/10/05 06:41:45;;;;;;;3.75;2.67;;;17.40;56.30;;;;;;4990372;28;20200;-79
2022/10/05 06:44:14;;;;;;;3.15;2.70;;;17.40;56.20;;;;;;4999965;28;20765;-79
2022/10/05 06:46:50;;;;;;;3.15;2.47;;;17.40;56.30;;;;;;5020580;28;20189;-80
2022/10/05 06:49:43;;;;;;;2.88;2.67;;;17.40;56.30;;;;;;5019475;28;20280;-79
2022/10/05 06:52:38;;;;;;;2.65;2.45;;;17.40;56.30;;;;;;5003407;28;20216;-79
2022/10/05 06:55:15;;;;;;;3.20;2.70;;;17.50;56.50;;;;;;5002405;28;20443;-80
2022/10/05 06:58:11;;;;;;;2.80;2.60;;;17.40;56.30;;;;;;5002150;28;20208;-79
2022/10/05 07:00:40;;;;;;;2.85;2.53;;;17.50;56.40;;;;;;4994859;28;20649;-80
2022/10/05 07:03:13;;;;;;;2.60;2.40;;;17.50;56.50;;;;;;5001109;28;20212;-80
2022/10/05 07:05:48;;;;;;;4.63;2.58;;;17.50;56.30;;;;;;5001972;28;20208;-79
2022/10/05 07:08:19;;;;;;;3.63;2.72;;;17.60;56.30;;;;;;5001164;28;20700;-80
2022/10/05 07:10:57;;;;;;;3.10;2.90;;;17.60;56.30;;;;;;5001777;28;20208;-80
2022/10/05 07:13:38;;;;;;;2.90;2.65;;;17.60;56.50;;;;;;5001102;28;20221;-80
2022/10/05 07:16:11;;;;;;;3.13;2.83;;;17.70;56.40;;;;;;5003083;28;20220;-79
2022/10/05 07:18:50;;;;;;;3.17;2.88;;;17.70;56.40;;;;;;5004016;28;20632;-80
2022/10/05 07:21:22;;;;;;;2.95;2.72;;;17.70;56.30;;;;;;5003686;28;20196;-79
2022/10/05 07:23:55;;;;;;;3.47;3.17;;;17.80;56.30;;;;;;5004010;28;20219;-79
2022/10/05 07:26:25;;;;;;;2.72;2.53;;;17.80;56.30;;;;;;5004428;28;20202;-79
2022/10/05 07:29:10;;;;;;;3.80;3.05;;;17.80;56.30;;;;;;5002642;28;20200;-80
2022/10/05 07:31:42;;;;;;;3.78;2.50;;;17.90;56.40;;;;;;5003728;28;20188;-79
2022/10/05 07:34:12;;;;;;;3.05;2.85;;;18.10;56.60;;;;;;5020650;28;20541;-79
2022/10/05 07:39:31;;;;;;;3.17;2.97;;;18.40;55.90;;;;;;5002454;28;20212;-80
2022/10/05 07:42:08;;;;;;;3.35;2.65;;;18.60;55.50;;;;;;5002669;28;20220;-80
2022/10/05 07:44:37;;;;;;;3.35;2.97;;;18.80;55.10;;;;;;5000899;28;20195;-80
2022/10/05 07:47:09;;;;;;;2.97;2.50;;;18.90;54.60;;;;;;5000845;28;20269;-80
2022/10/05 07:49:41;;;;;;;2.70;2.50;;;19.00;54.40;;;;;;5000490;28;20188;-80
2022/10/05 07:52:11;;;;;;;4.53;2.95;;;19.10;54.00;;;;;;5000764;28;20216;-80
2022/10/05 07:54:45;;;;;;;2.75;2.55;;;19.20;54.00;;;;;;4999996;28;20197;-77
2022/10/05 07:57:17;;;;;;;2.70;2.50;;;19.30;54.00;;;;;;5000301;28;20201;-78
2022/10/05 07:59:48;;;;;;;4.15;3.00;;;19.50;53.80;;;;;;5000544;28;20208;-77
2022/10/05 08:02:21;;;;;;;3.47;3.17;;;19.70;53.60;;;;;;5000286;28;20288;-77
2022/10/05 08:04:53;;;;;;;3.05;2.75;;;19.90;53.30;;;;;;5017602;28;20177;-77
2022/10/05 08:07:20;;;;;;;2.90;2.70;;;20.00;53.60;;;;;;5017158;28;20180;-77
2022/10/05 08:09:52;;;;;;;2.63;2.42;;;20.20;52.70;;;;;;5000103;28;20224;-77
2022/10/05 08:12:27;;;;;;;2.67;2.47;;;20.30;52.40;;;;;;4999744;28;20223;-77
2022/10/05 08:14:56;;;;;;;3.10;2.80;;;20.50;52.10;;;;;;4999524;28;20707;-77
2022/10/05 08:17:30;;;;;;;2.53;2.33;;;20.60;52.00;;;;;;4999721;28;20284;-77
2022/10/05 08:20:04;;;;;;;2.70;2.50;;;20.70;51.90;;;;;;4999690;28;20240;-77
2022/10/05 08:22:34;;;;;;;2.70;2.50;;;20.80;51.50;;;;;;5000739;28;20255;-77
2022/10/05 08:25:05;;;;;;;2.60;2.40;;;20.90;51.40;;;;;;5000456;28;20209;-77
2022/10/05 08:27:35;;;;;;;2.60;2.40;;;20.90;51.20;;;;;;5017215;28;20248;-77
2022/10/05 08:30:04;;;;;;;2.60;2.40;;;21.00;51.00;;;;;;5016954;28;20244;-77
2022/10/05 08:32:35;;;;;;;3.08;2.50;;;21.00;51.00;;;;;;4998962;28;20301;-77
2022/10/05 08:35:04;;;;;;;2.35;2.17;;;21.10;50.90;;;;;;4998891;28;20189;-77
2022/10/05 08:37:34;;;;;;;2.55;2.35;;;21.20;50.70;;;;;;4998749;28;20201;-77
2022/10/05 08:40:14;;;;;;;2.38;2.17;;;21.30;50.70;;;;;;4998938;28;20223;-77
2022/10/05 08:42:50;;;;;;;2.17;2.08;;;21.30;50.40;;;;;;4999389;28;20220;-77
2022/10/05 08:45:54;;;;;;;2.40;2.20;;;21.40;50.40;;;;;;4999702;28;20200;-77
2022/10/05 08:48:29;;;;;;;2.45;2.25;;;21.50;50.40;;;;;;4998806;28;20192;-77
2022/10/05 08:51:21;;;;;;;2.00;1.80;;;21.50;49.90;;;;;;4998964;28;20195;-77
2022/10/05 08:54:12;;;;;;;2.40;2.20;;;21.70;49.70;;;;;;4998413;28;20221;-77
2022/10/05 08:56:42;;;;;;;2.25;2.00;;;21.70;49.50;;;;;;4999114;28;20189;-77
2022/10/05 08:59:28;;;;;;;2.03;1.90;;;21.80;49.40;;;;;;4997777;28;20232;-77
2022/10/05 09:02:10;;;;;;;2.10;1.90;;;21.90;49.10;;;;;;4998202;28;20197;-78
2022/10/05 09:04:43;;;;;;;1.83;1.73;;;22.00;49.00;;;;;;4997905;28;20214;-78
2022/10/05 09:07:21;;;;;;;2.22;1.92;;;22.10;48.80;;;;;;4997739;28;20192;-78
2022/10/05 09:10:27;;;;;;;2.33;2.00;;;22.10;48.60;;;;;;4998004;28;20192;-78
2022/10/05 09:13:14;;;;;;;2.17;1.98;;;22.20;48.50;;;;;;4997818;28;20412;-78
2022/10/05 09:16:07;;;;;;;2.05;1.90;;;22.20;48.30;;;;;;5015551;28;20182;-78
2022/10/05 09:19:07;;;;;;;2.30;2.20;;;22.30;48.20;;;;;;5015563;28;20203;-78
2022/10/05 09:21:46;;;;;;;1.77;1.67;;;22.30;48.00;;;;;;4997840;28;20200;-78
2022/10/05 09:24:25;;;;;;;2.10;1.90;;;22.40;48.50;;;;;;4997603;28;20235;-77
2022/10/05 09:27:00;;;;;;;2.10;2.00;;;22.40;47.70;;;;;;4998194;28;20197;-79
2022/10/05 09:29:54;;;;;;;2.50;1.85;;;22.50;47.80;;;;;;4997022;28;20193;-80
2022/10/05 09:33:15;;;;;;;1.95;1.85;;;22.50;47.80;;;;;;4997310;28;20216;-80
2022/10/05 09:36:20;;;;;;;2.08;1.98;;;22.60;47.60;;;;;;4938082;29;20221;-80
2022/10/05 09:39:07;;;;;;;2.05;1.85;;;22.60;47.50;;;;;;4996727;28;20673;-80
2022/10/05 09:41:57;;;;;;;2.63;2.00;;;22.60;47.40;;;;;;4997738;28;20203;-80
2022/10/05 09:44:48;;;;;;;2.30;2.10;;;22.70;47.40;;;;;;4996975;28;20192;-80
2022/10/05 09:47:34;;;;;;;1.92;1.83;;;22.70;47.30;;;;;;4984310;28;20207;-80
2022/10/05 09:50:28;;;;;;;2.10;2.00;;;22.70;47.20;;;;;;5014114;28;20275;-80
2022/10/05 09:53:15;;;;;;;1.95;1.85;;;22.70;47.20;;;;;;4996463;28;20224;-80
2022/10/05 09:56:05;;;;;;;2.00;1.90;;;22.70;47.20;;;;;;4996687;28;20287;-80
2022/10/05 09:59:14;;;;;;;1.80;1.70;;;22.70;47.30;;;;;;4996309;28;20208;-80
2022/10/05 10:01:55;;;;;;;1.90;1.70;;;22.70;47.20;;;;;;4996190;28;20197;-80
2022/10/05 10:04:28;;;;;;;2.00;1.90;;;22.70;47.30;;;;;;4996907;28;20200;-80
2022/10/05 10:07:29;;;;;;;2.30;2.10;;;22.70;47.20;;;;;;4996316;28;20196;-80
2022/10/05 10:10:29;;;;;;;2.00;1.80;;;22.70;47.40;;;;;;4996615;28;20284;-82
2022/10/05 10:13:15;;;;;;;2.10;1.90;;;22.70;47.40;;;;;;4996390;28;20307;-82
2022/10/05 10:16:16;;;;;;;2.22;1.95;;;22.60;47.30;;;;;;4996378;28;20206;-82
2022/10/05 10:19:02;;;;;;;2.00;1.90;;;22.60;47.50;;;;;;4996133;28;20201;-83
2022/10/05 10:22:02;;;;;;;1.80;1.70;;;22.60;47.60;;;;;;4999341;28;20196;-82
2022/10/05 10:24:41;;;;;;;1.73;1.63;;;22.60;47.60;;;;;;5000442;28;20195;-80
2022/10/05 10:27:16;;;;;;;2.28;2.08;;;22.60;47.60;;;;;;5000450;28;20276;-80
2022/10/05 10:30:15;;;;;;;2.00;1.90;;;22.50;47.60;;;;;;5000336;28;20188;-80
2022/10/05 10:33:18;;;;;;;2.10;1.88;;;22.50;47.70;;;;;;5000373;28;20216;-80
2022/10/05 10:35:50;;;;;;;2.20;1.98;;;22.50;47.80;;;;;;4991535;28;20211;-80
2022/10/05 10:38:30;;;;;;;1.85;1.75;;;22.50;47.80;;;;;;5000291;28;20652;-80
2022/10/05 10:41:31;;;;;;;2.03;1.80;;;22.40;47.70;;;;;;5000089;28;20219;-80
2022/10/05 10:44:34;;;;;;;2.00;1.90;;;22.40;47.80;;;;;;5000217;28;20316;-80
2022/10/05 10:47:22;;;;;;;1.70;1.60;;;22.40;48.00;;;;;;5000106;28;20245;-80
2022/10/05 10:50:00;;;;;;;2.00;1.88;;;22.40;48.20;;;;;;4998160;28;20189;-80
2022/10/05 10:52:38;;;;;;;1.67;1.58;;;22.30;48.20;;;;;;4999882;28;20244;-80
2022/10/05 10:55:15;;;;;;;2.38;2.22;;;22.40;48.40;;;;;;4999781;28;20200;-80
2022/10/05 10:57:51;;;;;;;2.45;1.80;;;22.30;48.40;;;;;;5000416;28;20246;-80
2022/10/05 11:00:32;;;;;;;1.88;1.77;;;22.30;48.40;;;;;;4999740;28;20223;-80
2022/10/05 11:03:22;;;;;;;2.20;2.00;;;22.30;48.60;;;;;;4999662;28;20228;-80
2022/10/05 11:06:28;;;;;;;1.90;1.80;;;22.20;48.70;;;;;;4999499;28;20211;-80
2022/10/05 11:09:28;;;;;;;2.55;2.03;;;22.20;48.80;;;;;;4999993;28;20201;-80
2022/10/05 11:12:31;;;;;;;1.88;1.77;;;22.20;48.90;;;;;;4999784;28;20314;-76
2022/10/05 11:15:26;;;;;;;2.13;1.92;;;22.20;49.00;;;;;;5001214;28;20196;-76
2022/10/05 11:18:01;;;;;;;1.92;1.83;;;22.20;49.10;;;;;;5001273;28;20189;-76
2022/10/05 11:20:52;;;;;;;2.13;2.03;;;22.20;49.10;;;;;;5000817;28;20219;-76
2022/10/05 11:23:55;;;;;;;2.10;1.85;;;22.20;49.10;;;;;;5000412;28;20224;-76
2022/10/05 11:26:42;;;;;;;2.00;1.90;;;22.20;49.20;;;;;;4969365;28;20201;-76
2022/10/05 11:29:38;;;;;;;1.90;1.80;;;22.20;49.30;;;;;;5001505;28;20584;-76
2022/10/05 11:32:47;;;;;;;1.88;1.77;;;22.20;49.30;;;;;;4999989;28;20251;-76
2022/10/05 11:35:41;;;;;;;1.70;1.60;;;22.20;49.30;;;;;;5000369;28;20197;-76
2022/10/05 11:38:28;;;;;;;2.08;1.88;;;22.30;49.30;;;;;;5000408;28;20197;-76
2022/10/05 11:41:26;;;;;;;1.80;1.70;;;22.30;49.30;;;;;;5000738;28;20201;-76
2022/10/05 11:44:18;;;;;;;2.00;1.90;;;22.30;49.30;;;;;;4979941;28;20231;-76
2022/10/05 11:46:48;;;;;;;1.98;1.88;;;22.30;49.40;;;;;;5000506;28;20231;-76
2022/10/05 11:49:38;;;;;;;2.10;1.90;;;22.30;49.40;;;;;;5001120;28;20201;-76
2022/10/05 11:52:09;;;;;;;2.28;1.67;;;22.30;49.50;;;;;;4996444;28;20217;-76
2022/10/05 11:55:10;;;;;;;2.00;1.90;;;22.30;49.50;;;;;;5000220;28;20193;-75
2022/10/05 11:57:38;;;;;;;1.92;1.80;;;22.30;49.50;;;;;;4968588;28;20289;-78
2022/10/05 12:00:12;;;;;;;1.98;1.88;;;22.30;49.70;;;;;;5017648;28;20653;-78
2022/10/05 12:02:47;;;;;;;3.33;1.65;;;22.30;49.80;;;;;;4999340;28;20300;-79
2022/10/05 12:05:17;;;;;;;3.47;2.00;;;22.30;50.20;;;;;;4999500;28;20242;-77
2022/10/05 12:07:47;;;;;;;1.90;1.70;;;22.30;50.60;;;;;;5000741;28;20225;-78
2022/10/05 12:10:23;;;;;;;1.75;1.60;;;22.30;51.20;;;;;;4999351;28;20657;-77
2022/10/05 12:13:01;;;;;;;2.10;1.90;;;22.40;51.50;;;;;;4999333;28;20236;-78
2022/10/05 12:15:32;;;;;;;2.33;1.88;;;22.40;51.70;;;;;;4998633;28;20599;-77
2022/10/05 12:18:03;;;;;;;2.42;1.80;;;22.40;51.60;;;;;;5016114;28;20177;-77
2022/10/05 12:20:33;;;;;;;4.30;1.80;;;22.50;51.90;;;;;;4999439;28;20299;-77
2022/10/05 12:23:03;;;;;;;2.17;2.00;;;22.50;52.20;;;;;;4999260;28;20655;-77
2022/10/05 12:25:31;;;;;;;2.20;2.00;;;22.50;52.60;;;;;;4999000;28;20209;-77
2022/10/05 12:28:03;;;;;;;1.92;1.70;;;22.50;52.80;;;;;;4999341;28;20211;-77
2022/10/05 12:30:53;;;;;;;2.22;1.95;;;22.50;52.60;;;;;;4999445;28;20204;-77
2022/10/05 12:33:22;;;;;;;1.92;1.83;;;22.50;52.60;;;;;;4998873;28;20311;-77
2022/10/05 12:35:50;;;;;;;3.03;2.00;;;22.50;52.70;;;;;;4998604;28;20291;-77
2022/10/05 12:38:23;;;;;;;2.00;1.80;;;22.50;52.80;;;;;;4999049;28;20196;-77
2022/10/05 12:40:55;;;;;;;2.83;2.03;;;22.50;52.90;;;;;;4998418;28;20271;-77
2022/10/05 12:43:24;;;;;;;2.38;1.83;;;22.50;53.20;;;;;;4997249;28;20256;-77
2022/10/05 12:46:00;;;;;;;4.55;1.95;;;22.50;53.50;;;;;;4997677;28;20243;-78
2022/10/05 12:48:48;;;;;;;2.45;1.90;;;22.50;53.40;;;;;;4998357;28;20220;-77
2022/10/05 12:51:17;;;;;;;5.00;2.05;;;22.50;53.40;;;;;;4998486;28;20200;-77
2022/10/05 12:53:49;;;;;;;3.53;1.80;;;22.50;53.70;;;;;;4998167;28;20248;-77
2022/10/05 12:56:21;;;;;;;3.03;2.15;;;22.50;54.90;;;;;;4998176;28;20200;-77
2022/10/05 12:58:52;;;;;;;2.78;1.90;;;22.40;54.10;;;;;;4999431;28;20204;-77
2022/10/05 13:01:27;;;;;;;2.10;1.75;;;22.50;54.00;;;;;;4998673;28;20220;-77
2022/10/05 13:03:57;;;;;;;3.55;1.85;;;22.40;53.90;;;;;;4998503;28;20311;-77
2022/10/05 13:06:26;;;;;;;4.20;2.00;;;22.40;53.70;;;;;;4998354;28;20192;-76
2022/10/05 13:08:55;;;;;;;1.90;1.70;;;22.40;53.70;;;;;;4998292;28;20232;-76
2022/10/05 13:11:27;;;;;;;1.90;1.80;;;22.40;53.70;;;;;;4998931;28;20244;-76
2022/10/05 13:13:58;;;;;;;2.22;1.70;;;22.40;53.60;;;;;;4998669;28;20224;-76
2022/10/05 13:16:32;;;;;;;4.35;1.92;;;22.30;53.40;;;;;;4999144;28;20248;-77
2022/10/05 13:19:06;;;;;;;1.70;1.60;;;22.30;53.00;;;;;;5016004;28;20181;-77
2022/10/05 13:21:38;;;;;;;2.05;1.40;;;22.30;52.90;;;;;;4998152;28;20244;-75
2022/10/05 13:24:08;;;;;;;3.17;1.50;;;22.30;52.80;;;;;;4998787;28;20193;-74
2022/10/05 13:26:37;;;;;;;1.85;1.48;;;22.30;52.70;;;;;;4997036;28;20244;-74
2022/10/05 13:29:10;;;;;;;1.75;1.40;;;22.30;52.40;;;;;;5014622;28;20185;-74
2022/10/05 13:31:42;;;;;;;2.17;1.30;;;22.20;52.00;;;;;;4997358;28;20544;-75
2022/10/05 13:34:17;;;;;;;1.60;1.50;;;22.20;51.80;;;;;;5014809;28;20629;-74
2022/10/05 13:36:51;;;;;;;1.73;1.17;;;22.20;51.70;;;;;;4997351;28;20770;-74
2022/10/05 13:39:25;;;;;;;2.17;1.40;;;22.20;51.30;;;;;;4996609;28;20205;-75